Wentworth, Wisconsin
Current Conditions -  °F | °C
As of 11:55 AM on Friday 24 Oct 2014 (Local Time) from KSUW Reporting Station
Clear Clear  
Wind Chill: 64°   Ceiling: Unl
Heat Index: 64°   Visibility: 10mi
Dew Point: 49°   Wind: 10mph
Humidity: 59%   Direction: 230°SW
Pressure: 29.83"   Gusts: 16mph
Location:  46.578°N, 91.9335°W
Report Text: KSUW 241655Z AUTO 23009G14KT 10SM CLR 18/09 A2983 RMK AO2 T01750094
Loading
Personal Weather Stations






























Interactive Weather Map
Tropical Storm Tracking
New forecast layout! Learn more

10-Day Weather Forecast

Advertisements
Track Severe Weather on mobile